Time;durP1;ratioP1;P1;durP2;ratioP2;P2;SDS_P1;SDS_P2;PMS_P1;PMS_P2;Temp;Humidity;BMP_temperature;BMP_pressure;BME280_temperature;BME280_humidity;BME280_pressure;Samples;Min_cycle;Max_cycle;Signal;HPM_P1;HPM_P2
2024/02/16 00:00:16;;;;;;;3.93;1.60;;;;;;;;;;702207;27;1745;-68
2024/02/16 00:00:36;;;;;;;3.78;1.70;;;;;;;;;;704346;27;919;-68
2024/02/16 00:00:56;;;;;;;3.67;1.73;;;;;;;;;;704216;27;1272;-69
2024/02/16 00:01:17;;;;;;;3.58;1.80;;;;;;;;;;702102;27;4390;-70
2024/02/16 00:01:37;;;;;;;3.20;1.70;;;;;;;;;;704724;27;888;-68
2024/02/16 00:01:57;;;;;;;3.90;1.70;;;;;;;;;;702727;28;823;-68
2024/02/16 00:02:18;;;;;;;4.60;2.08;;;;;;;;;;700946;28;2460;-68
2024/02/16 00:02:38;;;;;;;4.33;2.13;;;;;;;;;;700333;28;923;-70
2024/02/16 00:02:59;;;;;;;4.40;1.98;;;;;;;;;;698384;28;1236;-69
2024/02/16 00:03:19;;;;;;;3.67;1.83;;;;;;;;;;697130;28;1447;-70
2024/02/16 00:03:40;;;;;;;5.17;1.80;;;;;;;;;;696517;28;1716;-69
2024/02/16 00:04:00;;;;;;;4.80;1.83;;;;;;;;;;693717;28;1329;-69
2024/02/16 00:04:20;;;;;;;4.18;1.95;;;;;;;;;;691404;28;4240;-69
2024/02/16 00:04:41;;;;;;;4.63;1.87;;;;;;;;;;696845;28;1323;-68
2024/02/16 00:05:01;;;;;;;4.47;1.80;;;;;;;;;;699824;28;781;-69
2024/02/16 00:05:22;;;;;;;3.60;1.70;;;;;;;;;;697328;28;1057;-69
2024/02/16 00:05:42;;;;;;;3.97;1.80;;;;;;;;;;702278;28;1122;-69
2024/02/16 00:06:03;;;;;;;4.20;1.70;;;;;;;;;;701817;28;777;-69
2024/02/16 00:06:23;;;;;;;3.72;1.67;;;;;;;;;;699807;28;1075;-69
2024/02/16 00:06:43;;;;;;;4.27;1.70;;;;;;;;;;703183;28;1309;-68
2024/02/16 00:07:03;;;;;;;3.57;1.70;;;;;;;;;;698148;28;4434;-68
2024/02/16 00:07:24;;;;;;;3.40;1.70;;;;;;;;;;692820;28;2262;-68
2024/02/16 00:07:44;;;;;;;3.07;1.60;;;;;;;;;;697329;28;955;-71
2024/02/16 00:08:04;;;;;;;3.30;1.80;;;;;;;;;;693992;28;1213;-68
2024/02/16 00:08:25;;;;;;;3.38;1.70;;;;;;;;;;693076;28;1573;-69
2024/02/16 00:08:45;;;;;;;3.90;1.93;;;;;;;;;;696095;28;1103;-69
2024/02/16 00:09:05;;;;;;;5.83;2.20;;;;;;;;;;694516;28;905;-69
2024/02/16 00:09:27;;;;;;;4.50;1.90;;;;;;;;;;694660;28;1972;-71
2024/02/16 00:09:47;;;;;;;4.00;1.90;;;;;;;;;;696240;28;1073;-69
2024/02/16 00:10:09;;;;;;;3.83;1.93;;;;;;;;;;695239;28;4360;-70
2024/02/16 00:10:29;;;;;;;4.07;1.88;;;;;;;;;;696063;28;1298;-69
2024/02/16 00:10:49;;;;;;;4.23;1.90;;;;;;;;;;695100;28;1846;-70
2024/02/16 00:11:09;;;;;;;4.90;1.83;;;;;;;;;;695160;28;2166;-69
2024/02/16 00:11:30;;;;;;;4.70;2.20;;;;;;;;;;700229;28;996;-69
2024/02/16 00:11:52;;;;;;;4.27;2.77;;;;;;;;;;701503;28;4872;-69
2024/02/16 00:12:12;;;;;;;3.83;2.03;;;;;;;;;;698961;28;2327;-69
2024/02/16 00:12:33;;;;;;;4.60;1.80;;;;;;;;;;700321;28;1269;-69
2024/02/16 00:12:53;;;;;;;4.35;1.70;;;;;;;;;;699584;28;952;-72
2024/02/16 00:13:14;;;;;;;4.60;1.73;;;;;;;;;;700299;28;4441;-68
2024/02/16 00:13:34;;;;;;;4.30;1.80;;;;;;;;;;701398;28;1126;-70
2024/02/16 00:13:55;;;;;;;3.73;1.83;;;;;;;;;;700898;28;904;-69
2024/02/16 00:14:15;;;;;;;3.63;2.00;;;;;;;;;;702057;28;1777;-69
2024/02/16 00:14:35;;;;;;;4.63;2.00;;;;;;;;;;704088;28;765;-68
2024/02/16 00:14:55;;;;;;;4.70;1.80;;;;;;;;;;703565;28;1260;-68
2024/02/16 00:15:16;;;;;;;4.13;1.60;;;;;;;;;;702508;27;1737;-68
2024/02/16 00:15:38;;;;;;;4.88;1.90;;;;;;;;;;703084;28;1183;-69
2024/02/16 00:15:58;;;;;;;4.93;1.70;;;;;;;;;;701148;28;944;-70
2024/02/16 00:16:19;;;;;;;3.93;1.63;;;;;;;;;;699358;28;4733;-68
2024/02/16 00:16:39;;;;;;;4.97;1.70;;;;;;;;;;701769;28;1036;-69
2024/02/16 00:16:59;;;;;;;4.57;1.70;;;;;;;;;;699885;28;1163;-70
2024/02/16 00:17:21;;;;;;;3.77;1.70;;;;;;;;;;700242;28;1758;-70
2024/02/16 00:17:41;;;;;;;4.00;1.70;;;;;;;;;;702534;28;1041;-68
2024/02/16 00:18:03;;;;;;;5.87;1.90;;;;;;;;;;700383;28;758;-69
2024/02/16 00:18:23;;;;;;;6.95;2.10;;;;;;;;;;702022;28;2498;-69
2024/02/16 00:18:44;;;;;;;4.07;1.90;;;;;;;;;;701285;28;995;-68
2024/02/16 00:19:04;;;;;;;4.37;1.87;;;;;;;;;;701213;28;5107;-69
2024/02/16 00:19:24;;;;;;;4.83;1.87;;;;;;;;;;700071;28;1875;-69
2024/02/16 00:19:44;;;;;;;5.70;2.10;;;;;;;;;;700474;28;896;-72
2024/02/16 00:20:07;;;;;;;4.87;1.70;;;;;;;;;;697866;28;1231;-71
2024/02/16 00:20:27;;;;;;;5.05;1.70;;;;;;;;;;697420;28;2284;-72
2024/02/16 00:20:48;;;;;;;4.20;1.90;;;;;;;;;;701212;28;1006;-70
2024/02/16 00:21:08;;;;;;;4.13;1.83;;;;;;;;;;701107;28;1261;-72
2024/02/16 00:21:28;;;;;;;3.42;1.80;;;;;;;;;;699976;28;880;-75
2024/02/16 00:21:51;;;;;;;4.07;1.93;;;;;;;;;;702167;28;1189;-69
2024/02/16 00:22:12;;;;;;;3.80;1.77;;;;;;;;;;696390;28;4256;-71
2024/02/16 00:22:33;;;;;;;3.88;1.85;;;;;;;;;;701940;28;821;-69
2024/02/16 00:22:53;;;;;;;4.35;2.10;;;;;;;;;;701902;28;1243;-70
2024/02/16 00:23:13;;;;;;;3.93;1.90;;;;;;;;;;701656;27;2446;-69
2024/02/16 00:23:34;;;;;;;4.20;1.73;;;;;;;;;;704744;27;900;-69
2024/02/16 00:23:54;;;;;;;4.05;1.75;;;;;;;;;;701633;28;1192;-70
2024/02/16 00:24:14;;;;;;;4.13;1.83;;;;;;;;;;700248;28;1743;-68
2024/02/16 00:24:36;;;;;;;3.30;1.60;;;;;;;;;;700229;28;864;-68
2024/02/16 00:24:56;;;;;;;3.67;1.50;;;;;;;;;;700529;28;1172;-68
2024/02/16 00:25:17;;;;;;;3.67;1.90;;;;;;;;;;698728;28;4598;-69
2024/02/16 00:25:39;;;;;;;3.47;1.83;;;;;;;;;;703104;28;1261;-69
2024/02/16 00:26:00;;;;;;;4.88;1.70;;;;;;;;;;702683;28;985;-69
2024/02/16 00:26:21;;;;;;;4.65;1.90;;;;;;;;;;700577;28;2473;-68
2024/02/16 00:26:43;;;;;;;3.83;1.83;;;;;;;;;;700263;28;1284;-68
2024/02/16 00:27:05;;;;;;;4.72;1.80;;;;;;;;;;701663;28;995;-68
2024/02/16 00:27:25;;;;;;;4.47;1.85;;;;;;;;;;700128;28;1562;-69
2024/02/16 00:27:45;;;;;;;3.63;1.88;;;;;;;;;;703141;28;966;-68
2024/02/16 00:28:06;;;;;;;3.53;1.80;;;;;;;;;;703546;27;4286;-67
2024/02/16 00:28:26;;;;;;;3.53;1.70;;;;;;;;;;702953;27;2223;-68
2024/02/16 00:28:46;;;;;;;4.17;1.80;;;;;;;;;;705114;27;815;-70
2024/02/16 00:29:06;;;;;;;3.87;1.80;;;;;;;;;;705490;27;1277;-70
2024/02/16 00:29:27;;;;;;;3.80;1.70;;;;;;;;;;703640;27;2074;-69
2024/02/16 00:29:47;;;;;;;9.97;1.80;;;;;;;;;;704177;27;1213;-68
2024/02/16 00:30:10;;;;;;;10.48;1.90;;;;;;;;;;705678;27;851;-68
2024/02/16 00:30:30;;;;;;;3.95;1.70;;;;;;;;;;700587;28;1097;-68
2024/02/16 00:30:50;;;;;;;4.30;1.80;;;;;;;;;;697682;28;1310;-68
2024/02/16 00:31:11;;;;;;;4.57;1.80;;;;;;;;;;697243;28;4253;-68
2024/02/16 00:31:31;;;;;;;5.63;1.95;;;;;;;;;;698254;28;1103;-68
2024/02/16 00:31:51;;;;;;;5.07;1.90;;;;;;;;;;698362;28;6643;-68
2024/02/16 00:32:12;;;;;;;4.30;1.60;;;;;;;;;;697739;28;1756;-71
2024/02/16 00:32:32;;;;;;;4.38;1.70;;;;;;;;;;700054;28;1121;-69
2024/02/16 00:32:53;;;;;;;5.33;2.50;;;;;;;;;;699542;28;770;-69
2024/02/16 00:33:13;;;;;;;5.83;2.60;;;;;;;;;;697080;28;2263;-69
2024/02/16 00:33:33;;;;;;;4.67;1.83;;;;;;;;;;697468;28;928;-68
2024/02/16 00:33:53;;;;;;;3.93;1.70;;;;;;;;;;698474;28;857;-67
2024/02/16 00:34:14;;;;;;;3.97;1.80;;;;;;;;;;697156;28;4424;-68
2024/02/16 00:34:35;;;;;;;4.20;1.80;;;;;;;;;;699823;28;793;-69
2024/02/16 00:34:55;;;;;;;4.82;1.90;;;;;;;;;;700469;28;1071;-71
2024/02/16 00:35:19;;;;;;;4.70;2.03;;;;;;;;;;701046;28;2339;-68
2024/02/16 00:35:39;;;;;;;4.70;2.22;;;;;;;;;;704507;28;975;-68
2024/02/16 00:35:59;;;;;;;3.80;1.58;;;;;;;;;;701796;28;1201;-69
2024/02/16 00:36:19;;;;;;;3.53;1.60;;;;;;;;;;699258;28;1778;-68
2024/02/16 00:36:40;;;;;;;3.60;1.80;;;;;;;;;;700889;28;1359;-68
2024/02/16 00:37:00;;;;;;;4.73;1.87;;;;;;;;;;697438;28;1710;-68
2024/02/16 00:37:21;;;;;;;5.00;1.80;;;;;;;;;;695227;28;4344;-69
2024/02/16 00:37:41;;;;;;;3.97;1.80;;;;;;;;;;696216;28;1422;-68
2024/02/16 00:38:01;;;;;;;3.40;1.70;;;;;;;;;;699914;28;1229;-68
2024/02/16 00:38:23;;;;;;;4.00;1.90;;;;;;;;;;697264;28;2340;-68
2024/02/16 00:38:43;;;;;;;4.20;1.92;;;;;;;;;;700481;28;1004;-68
2024/02/16 00:39:03;;;;;;;4.20;1.83;;;;;;;;;;704490;27;1301;-68
2024/02/16 00:39:24;;;;;;;3.83;1.97;;;;;;;;;;702266;27;2090;-68
2024/02/16 00:39:45;;;;;;;3.33;1.60;;;;;;;;;;701696;28;1146;-68
2024/02/16 00:40:06;;;;;;;4.20;1.70;;;;;;;;;;698035;28;4281;-68
2024/02/16 00:40:27;;;;;;;4.43;1.77;;;;;;;;;;697042;28;1773;-68
2024/02/16 00:40:47;;;;;;;5.03;1.88;;;;;;;;;;701003;28;1327;-67
2024/02/16 00:41:07;;;;;;;4.90;1.80;;;;;;;;;;698732;28;1231;-69
2024/02/16 00:41:27;;;;;;;3.70;1.73;;;;;;;;;;696886;28;1562;-68
2024/02/16 00:41:47;;;;;;;3.73;1.67;;;;;;;;;;699102;28;789;-67
2024/02/16 00:42:08;;;;;;;4.37;1.67;;;;;;;;;;700806;28;845;-70
2024/02/16 00:42:30;;;;;;;4.10;1.77;;;;;;;;;;700437;28;1755;-69
2024/02/16 00:42:51;;;;;;;5.22;1.80;;;;;;;;;;699924;28;1103;-70
2024/02/16 00:43:11;;;;;;;4.70;1.93;;;;;;;;;;696152;28;4380;-69
2024/02/16 00:43:31;;;;;;;3.97;1.88;;;;;;;;;;696978;28;1340;-68
2024/02/16 00:43:52;;;;;;;5.20;1.87;;;;;;;;;;698771;28;904;-68
2024/02/16 00:44:12;;;;;;;5.32;1.73;;;;;;;;;;698004;28;1778;-67
2024/02/16 00:44:33;;;;;;;4.30;1.60;;;;;;;;;;697714;28;1159;-68
2024/02/16 00:44:53;;;;;;;4.47;1.77;;;;;;;;;;698355;28;955;-69
2024/02/16 00:45:13;;;;;;;4.77;1.83;;;;;;;;;;700053;28;1497;-68
2024/02/16 00:45:33;;;;;;;4.40;1.90;;;;;;;;;;705006;27;955;-68
2024/02/16 00:45:53;;;;;;;4.03;2.00;;;;;;;;;;706616;27;1103;-67
2024/02/16 00:46:14;;;;;;;4.00;1.70;;;;;;;;;;700724;27;4410;-68
2024/02/16 00:46:37;;;;;;;4.15;1.67;;;;;;;;;;702496;28;991;-68
2024/02/16 00:46:58;;;;;;;4.05;1.77;;;;;;;;;;702011;28;951;-69
2024/02/16 00:47:18;;;;;;;4.13;1.70;;;;;;;;;;697667;28;1813;-68
2024/02/16 00:47:39;;;;;;;3.67;1.70;;;;;;;;;;699733;28;1725;-68
2024/02/16 00:48:01;;;;;;;4.00;1.75;;;;;;;;;;699396;28;948;-68
2024/02/16 00:48:22;;;;;;;3.60;1.50;;;;;;;;;;698270;28;2671;-68
2024/02/16 00:48:42;;;;;;;3.75;1.70;;;;;;;;;;695957;28;963;-67
2024/02/16 00:49:02;;;;;;;3.37;1.70;;;;;;;;;;696647;28;4254;-68
2024/02/16 00:49:22;;;;;;;4.17;1.77;;;;;;;;;;696553;28;1946;-68
2024/02/16 00:49:43;;;;;;;4.80;1.77;;;;;;;;;;700483;28;793;-68
2024/02/16 00:50:05;;;;;;;3.70;1.70;;;;;;;;;;699902;28;900;-68
2024/02/16 00:50:26;;;;;;;3.45;1.55;;;;;;;;;;696957;28;1789;-68
2024/02/16 00:50:46;;;;;;;5.30;1.70;;;;;;;;;;703583;27;884;-69
2024/02/16 00:51:06;;;;;;;4.40;1.70;;;;;;;;;;704793;27;1303;-68
2024/02/16 00:51:26;;;;;;;3.80;1.80;;;;;;;;;;702459;27;1819;-67
2024/02/16 00:51:47;;;;;;;4.68;1.90;;;;;;;;;;706224;27;857;-68
2024/02/16 00:52:07;;;;;;;4.35;1.88;;;;;;;;;;705027;27;4254;-68
2024/02/16 00:52:28;;;;;;;4.33;1.90;;;;;;;;;;700359;27;2177;-68
2024/02/16 00:52:48;;;;;;;5.17;1.77;;;;;;;;;;701633;28;1288;-68
2024/02/16 00:53:08;;;;;;;5.80;1.70;;;;;;;;;;703449;28;896;-68
2024/02/16 00:53:28;;;;;;;4.60;1.60;;;;;;;;;;702771;28;1725;-69
2024/02/16 00:53:49;;;;;;;5.53;1.80;;;;;;;;;;704018;28;932;-68
2024/02/16 00:54:09;;;;;;;5.33;1.70;;;;;;;;;;703786;28;1288;-68
2024/02/16 00:54:29;;;;;;;4.65;1.70;;;;;;;;;;702775;28;2284;-69
2024/02/16 00:54:49;;;;;;;4.53;1.80;;;;;;;;;;705750;27;924;-68
2024/02/16 00:55:10;;;;;;;4.70;1.90;;;;;;;;;;704427;27;4811;-70
2024/02/16 00:55:30;;;;;;;4.18;1.77;;;;;;;;;;705230;27;923;-69
2024/02/16 00:55:50;;;;;;;3.80;1.80;;;;;;;;;;702781;28;1253;-68
2024/02/16 00:56:11;;;;;;;3.70;1.70;;;;;;;;;;700137;28;2234;-68
2024/02/16 00:56:32;;;;;;;3.88;1.65;;;;;;;;;;698815;28;932;-68
2024/02/16 00:56:52;;;;;;;3.30;1.65;;;;;;;;;;700601;28;789;-69
2024/02/16 00:57:14;;;;;;;3.40;1.70;;;;;;;;;;701388;28;2208;-68
2024/02/16 00:57:34;;;;;;;3.50;1.75;;;;;;;;;;698040;28;1266;-68
2024/02/16 00:57:54;;;;;;;4.57;1.80;;;;;;;;;;700588;28;1508;-68
2024/02/16 00:58:14;;;;;;;4.40;1.80;;;;;;;;;;699022;28;4646;-69
2024/02/16 00:58:36;;;;;;;4.78;1.80;;;;;;;;;;698062;28;987;-70
2024/02/16 00:58:56;;;;;;;4.05;1.80;;;;;;;;;;699854;28;1139;-69
2024/02/16 00:59:16;;;;;;;4.60;1.90;;;;;;;;;;698982;28;1232;-68
2024/02/16 00:59:37;;;;;;;4.47;1.80;;;;;;;;;;701005;28;1312;-69
2024/02/16 00:59:57;;;;;;;3.63;1.60;;;;;;;;;;701099;28;934;-68
2024/02/16 01:00:19;;;;;;;3.40;1.70;;;;;;;;;;699295;28;2564;-68
2024/02/16 01:00:39;;;;;;;3.50;1.80;;;;;;;;;;698808;28;1305;-69
2024/02/16 01:00:59;;;;;;;4.00;1.73;;;;;;;;;;700530;28;888;-69
2024/02/16 01:01:22;;;;;;;5.20;1.80;;;;;;;;;;699673;28;4335;-67
2024/02/16 01:01:42;;;;;;;3.97;1.80;;;;;;;;;;702246;28;1015;-68
2024/02/16 01:02:03;;;;;;;4.10;1.73;;;;;;;;;;698587;28;802;-70
2024/02/16 01:02:24;;;;;;;4.30;1.80;;;;;;;;;;699661;28;2328;-69
2024/02/16 01:02:44;;;;;;;4.30;1.70;;;;;;;;;;701309;28;920;-69
2024/02/16 01:03:05;;;;;;;3.47;1.80;;;;;;;;;;701175;28;1141;-69
2024/02/16 01:03:26;;;;;;;3.97;1.70;;;;;;;;;;703476;27;1756;-68
2024/02/16 01:03:46;;;;;;;4.13;1.70;;;;;;;;;;701136;28;1201;-69
2024/02/16 01:04:06;;;;;;;3.20;1.80;;;;;;;;;;700972;28;4772;-69
2024/02/16 01:04:27;;;;;;;3.63;1.70;;;;;;;;;;698993;28;2392;-68
2024/02/16 01:04:47;;;;;;;3.42;1.60;;;;;;;;;;702610;28;1328;-69
2024/02/16 01:05:09;;;;;;;3.60;1.60;;;;;;;;;;701014;28;829;-68
2024/02/16 01:05:30;;;;;;;3.63;1.77;;;;;;;;;;699653;28;1694;-68
2024/02/16 01:05:50;;;;;;;4.20;1.80;;;;;;;;;;703753;28;995;-69
2024/02/16 01:06:10;;;;;;;4.63;2.10;;;;;;;;;;701304;28;1226;-71
2024/02/16 01:06:31;;;;;;;4.77;2.10;;;;;;;;;;700797;28;1108;-69
2024/02/16 01:06:51;;;;;;;4.22;2.05;;;;;;;;;;701756;28;884;-69
2024/02/16 01:07:12;;;;;;;4.17;1.67;;;;;;;;;;697507;28;6176;-71
2024/02/16 01:07:32;;;;;;;3.97;1.60;;;;;;;;;;698768;28;834;-69
2024/02/16 01:07:52;;;;;;;6.23;1.97;;;;;;;;;;698138;28;3630;-70
2024/02/16 01:08:12;;;;;;;5.37;1.87;;;;;;;;;;696582;28;4970;-68
2024/02/16 01:08:33;;;;;;;5.18;1.80;;;;;;;;;;700876;28;1087;-69
2024/02/16 01:08:53;;;;;;;4.90;1.90;;;;;;;;;;701701;28;865;-68
2024/02/16 01:09:13;;;;;;;4.13;1.80;;;;;;;;;;699674;28;1845;-71
2024/02/16 01:09:33;;;;;;;3.88;1.75;;;;;;;;;;703183;27;1987;-70
2024/02/16 01:09:54;;;;;;;4.17;1.90;;;;;;;;;;704483;27;1167;-70
2024/02/16 01:10:15;;;;;;;5.75;2.40;;;;;;;;;;702288;27;4316;-68
2024/02/16 01:10:35;;;;;;;5.67;2.03;;;;;;;;;;704785;27;897;-68
2024/02/16 01:10:55;;;;;;;4.85;1.70;;;;;;;;;;700596;28;852;-68
2024/02/16 01:11:15;;;;;;;3.97;1.80;;;;;;;;;;700805;28;1918;-69
2024/02/16 01:11:36;;;;;;;3.43;1.70;;;;;;;;;;702052;28;1189;-69
2024/02/16 01:11:56;;;;;;;4.68;1.65;;;;;;;;;;702437;28;1359;-69
2024/02/16 01:12:16;;;;;;;3.90;1.50;;;;;;;;;;701371;28;1613;-68
2024/02/16 01:12:37;;;;;;;3.57;1.67;;;;;;;;;;701427;28;1049;-69
2024/02/16 01:12:57;;;;;;;3.93;1.90;;;;;;;;;;703386;28;904;-69
2024/02/16 01:13:17;;;;;;;3.30;1.73;;;;;;;;;;702840;28;4213;-71
2024/02/16 01:13:38;;;;;;;4.13;1.83;;;;;;;;;;703052;28;1264;-68
2024/02/16 01:13:59;;;;;;;4.20;1.60;;;;;;;;;;704389;27;824;-68
2024/02/16 01:14:19;;;;;;;5.75;1.90;;;;;;;;;;702707;28;1505;-68
2024/02/16 01:14:39;;;;;;;5.70;1.80;;;;;;;;;;703380;28;898;-68
2024/02/16 01:15:00;;;;;;;4.77;1.80;;;;;;;;;;701497;28;1130;-68
2024/02/16 01:15:20;;;;;;;4.68;1.80;;;;;;;;;;699364;28;1669;-68
2024/02/16 01:15:41;;;;;;;5.00;1.70;;;;;;;;;;701734;28;888;-68
2024/02/16 01:16:02;;;;;;;3.03;1.60;;;;;;;;;;701711;28;4324;-68
2024/02/16 01:16:23;;;;;;;3.35;1.70;;;;;;;;;;698598;28;1517;-68
2024/02/16 01:16:43;;;;;;;3.37;1.80;;;;;;;;;;700006;28;1062;-68
2024/02/16 01:17:04;;;;;;;3.90;1.70;;;;;;;;;;698717;28;1388;-68
2024/02/16 01:17:24;;;;;;;4.47;1.70;;;;;;;;;;698556;28;2212;-68
2024/02/16 01:17:45;;;;;;;4.55;1.63;;;;;;;;;;698644;28;1281;-68
2024/02/16 01:18:05;;;;;;;3.80;1.70;;;;;;;;;;698727;28;806;-70
2024/02/16 01:18:28;;;;;;;4.05;1.90;;;;;;;;;;692697;28;1389;-71
2024/02/16 01:18:48;;;;;;;3.97;1.70;;;;;;;;;;691263;28;761;-69
2024/02/16 01:19:09;;;;;;;4.18;1.70;;;;;;;;;;696029;28;5464;-68
2024/02/16 01:19:30;;;;;;;4.45;1.80;;;;;;;;;;695026;28;1567;-68
2024/02/16 01:19:50;;;;;;;4.27;1.80;;;;;;;;;;698941;28;1158;-69
2024/02/16 01:20:10;;;;;;;4.45;1.85;;;;;;;;;;699175;28;1025;-68
2024/02/16 01:20:31;;;;;;;4.33;1.87;;;;;;;;;;701050;28;2654;-68
2024/02/16 01:20:51;;;;;;;3.10;1.70;;;;;;;;;;704485;27;896;-68
2024/02/16 01:21:12;;;;;;;3.30;1.60;;;;;;;;;;704108;28;860;-68
2024/02/16 01:21:33;;;;;;;3.90;1.67;;;;;;;;;;700841;28;1204;-68
2024/02/16 01:21:57;;;;;;;3.47;1.80;;;;;;;;;;699873;28;1265;-69
2024/02/16 01:22:18;;;;;;;3.53;1.80;;;;;;;;;;699045;28;4196;-68
2024/02/16 01:22:39;;;;;;;3.85;1.88;;;;;;;;;;702393;28;1055;-68
2024/02/16 01:22:59;;;;;;;3.83;1.80;;;;;;;;;;699141;28;1229;-68
2024/02/16 01:23:20;;;;;;;4.27;1.80;;;;;;;;;;696049;28;2292;-69
2024/02/16 01:23:40;;;;;;;4.28;1.70;;;;;;;;;;699356;28;891;-68
2024/02/16 01:24:01;;;;;;;4.53;1.80;;;;;;;;;;697547;28;1233;-68
2024/02/16 01:24:21;;;;;;;4.47;1.92;;;;;;;;;;697187;28;2117;-69
2024/02/16 01:24:41;;;;;;;4.43;1.97;;;;;;;;;;699885;28;900;-68
2024/02/16 01:25:01;;;;;;;4.53;1.73;;;;;;;;;;702197;28;4266;-69
2024/02/16 01:25:22;;;;;;;3.85;1.60;;;;;;;;;;698715;28;1810;-68
2024/02/16 01:25:42;;;;;;;3.33;1.80;;;;;;;;;;700464;28;1194;-69
2024/02/16 01:26:02;;;;;;;4.27;1.90;;;;;;;;;;702226;28;768;-69
2024/02/16 01:26:23;;;;;;;4.57;1.80;;;;;;;;;;698444;28;2609;-72
2024/02/16 01:26:43;;;;;;;3.43;1.60;;;;;;;;;;700875;28;754;-70
2024/02/16 01:27:03;;;;;;;3.93;1.70;;;;;;;;;;700877;28;1149;-69
2024/02/16 01:27:23;;;;;;;4.35;1.77;;;;;;;;;;703085;28;2674;-68
2024/02/16 01:27:44;;;;;;;4.67;2.20;;;;;;;;;;703134;28;864;-69
2024/02/16 01:28:04;;;;;;;4.00;1.90;;;;;;;;;;700652;28;4429;-70
2024/02/16 01:28:24;;;;;;;3.28;1.70;;;;;;;;;;699446;28;2338;-68
2024/02/16 01:28:45;;;;;;;3.50;1.90;;;;;;;;;;701910;28;1229;-68
2024/02/16 01:29:05;;;;;;;4.57;2.10;;;;;;;;;;702924;28;1285;-68
2024/02/16 01:29:25;;;;;;;3.53;1.75;;;;;;;;;;699421;28;2425;-69
2024/02/16 01:29:47;;;;;;;4.32;1.80;;;;;;;;;;701317;28;887;-68
2024/02/16 01:30:07;;;;;;;4.23;1.80;;;;;;;;;;704240;27;865;-68
2024/02/16 01:30:27;;;;;;;4.97;1.65;;;;;;;;;;699748;28;1707;-68
2024/02/16 01:30:48;;;;;;;5.00;1.73;;;;;;;;;;700322;28;962;-68
2024/02/16 01:31:11;;;;;;;3.93;1.80;;;;;;;;;;699547;28;4403;-68
2024/02/16 01:31:31;;;;;;;3.63;1.67;;;;;;;;;;696812;28;2375;-71
2024/02/16 01:31:52;;;;;;;4.57;1.80;;;;;;;;;;697046;28;1210;-69
2024/02/16 01:32:13;;;;;;;4.03;1.80;;;;;;;;;;700257;28;919;-68
2024/02/16 01:32:34;;;;;;;4.75;1.83;;;;;;;;;;701504;28;1303;-69
2024/02/16 01:32:55;;;;;;;4.75;1.90;;;;;;;;;;703470;28;1027;-69
2024/02/16 01:33:15;;;;;;;3.40;1.50;;;;;;;;;;699944;28;2490;-68
2024/02/16 01:33:36;;;;;;;3.30;1.50;;;;;;;;;;701184;28;1177;-68
2024/02/16 01:33:56;;;;;;;4.35;1.90;;;;;;;;;;701068;28;931;-72
2024/02/16 01:34:17;;;;;;;4.05;1.80;;;;;;;;;;699358;28;4242;-69
2024/02/16 01:34:39;;;;;;;4.07;1.77;;;;;;;;;;699988;28;865;-72
2024/02/16 01:34:59;;;;;;;3.80;1.80;;;;;;;;;;701141;28;1150;-67
2024/02/16 01:35:19;;;;;;;3.27;1.60;;;;;;;;;;694687;28;1794;-68
2024/02/16 01:35:39;;;;;;;4.40;1.60;;;;;;;;;;697813;28;912;-70
2024/02/16 01:36:00;;;;;;;3.83;2.00;;;;;;;;;;698212;28;1438;-69
2024/02/16 01:36:20;;;;;;;5.40;2.20;;;;;;;;;;694615;28;2795;-69
2024/02/16 01:36:40;;;;;;;4.32;1.77;;;;;;;;;;695688;28;1340;-68
2024/02/16 01:37:01;;;;;;;5.57;1.90;;;;;;;;;;695266;28;892;-69
2024/02/16 01:37:21;;;;;;;5.07;1.80;;;;;;;;;;698981;28;4370;-68
2024/02/16 01:37:41;;;;;;;3.20;1.60;;;;;;;;;;700856;28;1153;-68
2024/02/16 01:38:01;;;;;;;3.75;1.75;;;;;;;;;;702978;28;777;-70
2024/02/16 01:38:22;;;;;;;3.43;1.80;;;;;;;;;;701455;28;2314;-69
2024/02/16 01:38:43;;;;;;;4.55;1.70;;;;;;;;;;702752;28;851;-68
2024/02/16 01:39:03;;;;;;;4.90;1.73;;;;;;;;;;703088;28;1303;-69
2024/02/16 01:39:23;;;;;;;4.82;1.70;;;;;;;;;;701417;28;3042;-68
2024/02/16 01:39:44;;;;;;;3.80;1.50;;;;;;;;;;703468;28;994;-70
2024/02/16 01:40:05;;;;;;;3.95;1.73;;;;;;;;;;702298;28;4500;-69
2024/02/16 01:40:26;;;;;;;3.97;1.63;;;;;;;;;;701791;28;2262;-69
2024/02/16 01:40:47;;;;;;;3.87;1.60;;;;;;;;;;704367;28;1304;-69
2024/02/16 01:41:08;;;;;;;3.70;1.50;;;;;;;;;;704401;28;1377;-69
2024/02/16 01:41:29;;;;;;;4.38;1.70;;;;;;;;;;702662;28;1303;-69
2024/02/16 01:41:49;;;;;;;4.70;1.70;;;;;;;;;;701889;28;903;-68
2024/02/16 01:42:09;;;;;;;4.27;1.70;;;;;;;;;;702293;28;793;-69
2024/02/16 01:42:29;;;;;;;5.60;1.80;;;;;;;;;;698845;28;1785;-69
2024/02/16 01:42:50;;;;;;;5.20;1.75;;;;;;;;;;700961;28;1746;-68
2024/02/16 01:43:10;;;;;;;3.70;1.60;;;;;;;;;;700768;28;4481;-68
2024/02/16 01:43:30;;;;;;;3.47;1.60;;;;;;;;;;698091;28;1447;-68
2024/02/16 01:43:54;;;;;;;5.10;1.98;;;;;;;;;;702399;28;928;-69
2024/02/16 01:44:16;;;;;;;4.47;1.80;;;;;;;;;;699738;28;1751;-69
2024/02/16 01:44:37;;;;;;;4.25;1.70;;;;;;;;;;701010;28;1375;-69
2024/02/16 01:44:58;;;;;;;3.40;1.65;;;;;;;;;;702356;28;820;-68
2024/02/16 01:45:18;;;;;;;4.17;1.73;;;;;;;;;;701015;28;1021;-68
2024/02/16 01:45:38;;;;;;;3.78;1.65;;;;;;;;;;702732;28;800;-68
2024/02/16 01:45:59;;;;;;;4.20;1.80;;;;;;;;;;704154;28;1144;-68
2024/02/16 01:46:20;;;;;;;4.70;2.00;;;;;;;;;;701431;28;4544;-67
2024/02/16 01:46:40;;;;;;;3.55;1.83;;;;;;;;;;702648;28;927;-69
2024/02/16 01:47:01;;;;;;;3.23;1.70;;;;;;;;;;702123;28;832;-68
2024/02/16 01:47:21;;;;;;;3.63;1.70;;;;;;;;;;699664;28;2368;-68
2024/02/16 01:47:43;;;;;;;3.87;1.60;;;;;;;;;;703307;28;1231;-69
2024/02/16 01:48:04;;;;;;;4.35;1.80;;;;;;;;;;700382;28;1257;-68
2024/02/16 01:48:25;;;;;;;4.05;1.75;;;;;;;;;;700341;28;2319;-68
2024/02/16 01:48:46;;;;;;;4.32;1.73;;;;;;;;;;702049;28;911;-68
2024/02/16 01:49:07;;;;;;;4.25;1.70;;;;;;;;;;699566;28;4268;-69
2024/02/16 01:49:28;;;;;;;3.88;1.65;;;;;;;;;;699919;28;1921;-68
2024/02/16 01:49:48;;;;;;;3.65;1.70;;;;;;;;;;697842;28;928;-68
2024/02/16 01:50:09;;;;;;;3.93;1.80;;;;;;;;;;700142;28;857;-67
2024/02/16 01:50:30;;;;;;;4.43;1.83;;;;;;;;;;698217;28;1884;-68
2024/02/16 01:50:50;;;;;;;5.15;1.75;;;;;;;;;;699928;28;892;-68
2024/02/16 01:51:11;;;;;;;3.33;1.63;;;;;;;;;;699701;28;1027;-68
2024/02/16 01:51:32;;;;;;;5.00;1.75;;;;;;;;;;698298;28;2674;-68
2024/02/16 01:51:52;;;;;;;4.00;1.73;;;;;;;;;;697346;28;1791;-69
2024/02/16 01:52:12;;;;;;;4.13;1.75;;;;;;;;;;697558;28;4421;-68
2024/02/16 01:52:34;;;;;;;4.13;1.77;;;;;;;;;;696159;28;1715;-69
2024/02/16 01:52:54;;;;;;;5.25;1.70;;;;;;;;;;694255;28;1174;-68
2024/02/16 01:53:18;;;;;;;4.68;1.70;;;;;;;;;;692083;28;2934;-69
2024/02/16 01:53:38;;;;;;;3.28;1.60;;;;;;;;;;697499;28;967;-69
2024/02/16 01:54:00;;;;;;;4.77;1.90;;;;;;;;;;699088;28;793;-71
2024/02/16 01:54:21;;;;;;;4.55;1.90;;;;;;;;;;695224;28;1825;-69
2024/02/16 01:54:41;;;;;;;3.70;1.80;;;;;;;;;;694838;28;1216;-68
2024/02/16 01:55:08;;;;;;;3.63;1.60;;;;;;;;;;699752;28;4476;-68
2024/02/16 01:55:29;;;;;;;4.05;1.50;;;;;;;;;;696247;28;2538;-68
2024/02/16 01:55:50;;;;;;;3.63;1.60;;;;;;;;;;700345;28;1356;-69
2024/02/16 01:56:10;;;;;;;3.03;1.63;;;;;;;;;;697868;28;1293;-68
2024/02/16 01:56:31;;;;;;;4.00;1.80;;;;;;;;;;696284;28;1808;-68
2024/02/16 01:56:51;;;;;;;3.92;1.70;;;;;;;;;;696594;28;845;-71
2024/02/16 01:57:12;;;;;;;4.53;1.70;;;;;;;;;;696576;28;952;-68
2024/02/16 01:57:32;;;;;;;4.90;1.77;;;;;;;;;;693013;28;1799;-68
2024/02/16 01:57:53;;;;;;;4.45;1.80;;;;;;;;;;694885;28;1353;-68
2024/02/16 01:58:13;;;;;;;4.27;1.80;;;;;;;;;;697787;28;4257;-68
2024/02/16 01:58:34;;;;;;;4.22;1.70;;;;;;;;;;699630;28;2213;-68
2024/02/16 01:58:54;;;;;;;5.13;1.60;;;;;;;;;;699834;28;940;-68
2024/02/16 01:59:15;;;;;;;4.63;1.70;;;;;;;;;;696233;28;1571;-68
2024/02/16 01:59:36;;;;;;;3.43;1.80;;;;;;;;;;697920;28;1222;-68
2024/02/16 01:59:58;;;;;;;3.92;1.70;;;;;;;;;;697244;28;821;-68
2024/02/16 02:00:19;;;;;;;3.75;1.60;;;;;;;;;;694149;28;1590;-68
2024/02/16 02:00:40;;;;;;;3.40;1.60;;;;;;;;;;697514;28;1492;-68
2024/02/16 02:01:01;;;;;;;3.70;1.70;;;;;;;;;;697260;28;1264;-68
2024/02/16 02:01:21;;;;;;;4.27;1.97;;;;;;;;;;699092;28;4314;-68
2024/02/16 02:01:41;;;;;;;4.53;1.70;;;;;;;;;;701272;28;947;-67
2024/02/16 02:02:01;;;;;;;4.80;1.70;;;;;;;;;;701908;28;912;-68
2024/02/16 02:02:22;;;;;;;3.17;1.70;;;;;;;;;;699429;28;1048;-70
2024/02/16 02:02:44;;;;;;;3.60;1.60;;;;;;;;;;700282;28;1094;-68
2024/02/16 02:03:04;;;;;;;3.50;1.73;;;;;;;;;;701907;28;1012;-69
2024/02/16 02:03:25;;;;;;;4.53;1.80;;;;;;;;;;699230;28;1287;-69
2024/02/16 02:03:45;;;;;;;4.60;1.90;;;;;;;;;;701142;28;997;-68
2024/02/16 02:04:06;;;;;;;3.47;1.50;;;;;;;;;;700300;28;4408;-68
2024/02/16 02:04:26;;;;;;;3.70;1.60;;;;;;;;;;699563;28;4882;-69
2024/02/16 02:04:47;;;;;;;3.63;1.60;;;;;;;;;;704053;28;1121;-69
2024/02/16 02:05:07;;;;;;;3.23;1.60;;;;;;;;;;703469;28;936;-70
2024/02/16 02:05:27;;;;;;;3.93;1.70;;;;;;;;;;702597;28;2277;-68
2024/02/16 02:05:47;;;;;;;4.67;1.70;;;;;;;;;;704332;28;1390;-68
2024/02/16 02:06:08;;;;;;;3.40;1.63;;;;;;;;;;703616;28;884;-68
2024/02/16 02:06:28;;;;;;;5.60;1.80;;;;;;;;;;702917;28;1452;-68
2024/02/16 02:06:48;;;;;;;4.53;1.80;;;;;;;;;;705149;28;785;-69
2024/02/16 02:07:15;;;;;;;4.03;1.70;;;;;;;;;;700459;28;4242;-68
2024/02/16 02:07:35;;;;;;;4.85;1.80;;;;;;;;;;697101;28;1451;-69
2024/02/16 02:07:55;;;;;;;4.07;1.70;;;;;;;;;;699134;28;873;-69
2024/02/16 02:08:16;;;;;;;3.70;1.67;;;;;;;;;;699184;28;1332;-68